sensor_id;sensor_type;location;lat;lon;timestamp;P1;durP1;ratioP1;P2;durP2;ratioP2
12467;SDS011;57850;52.922;6.256;2023-07-31T00:02:13;5.72;;;5.05;;
12467;SDS011;57850;52.922;6.256;2023-07-31T00:04:40;8.32;;;5.07;;
12467;SDS011;57850;52.922;6.256;2023-07-31T00:07:07;8.20;;;5.25;;
12467;SDS011;57850;52.922;6.256;2023-07-31T00:09:33;5.97;;;5.38;;
12467;SDS011;57850;52.922;6.256;2023-07-31T00:12:01;6.38;;;4.82;;
12467;SDS011;57850;52.922;6.256;2023-07-31T00:14:28;8.23;;;5.20;;
12467;SDS011;57850;52.922;6.256;2023-07-31T00:16:55;8.98;;;5.88;;
12467;SDS011;57850;52.922;6.256;2023-07-31T00:19:21;8.60;;;5.50;;
12467;SDS011;57850;52.922;6.256;2023-07-31T00:21:48;9.82;;;5.28;;
12467;SDS011;57850;52.922;6.256;2023-07-31T00:24:15;6.10;;;4.78;;
12467;SDS011;57850;52.922;6.256;2023-07-31T00:26:42;8.77;;;6.20;;
12467;SDS011;57850;52.922;6.256;2023-07-31T00:29:10;7.03;;;5.05;;
12467;SDS011;57850;52.922;6.256;2023-07-31T00:31:36;5.60;;;4.97;;
12467;SDS011;57850;52.922;6.256;2023-07-31T00:34:03;5.35;;;4.63;;
12467;SDS011;57850;52.922;6.256;2023-07-31T00:36:29;4.72;;;4.30;;
12467;SDS011;57850;52.922;6.256;2023-07-31T00:38:56;6.50;;;4.75;;
12467;SDS011;57850;52.922;6.256;2023-07-31T00:41:23;4.45;;;3.90;;
12467;SDS011;57850;52.922;6.256;2023-07-31T00:43:49;7.00;;;3.33;;
12467;SDS011;57850;52.922;6.256;2023-07-31T00:46:17;3.47;;;3.17;;
12467;SDS011;57850;52.922;6.256;2023-07-31T00:48:44;2.90;;;2.70;;
12467;SDS011;57850;52.922;6.256;2023-07-31T00:51:11;3.45;;;2.70;;
12467;SDS011;57850;52.922;6.256;2023-07-31T00:53:38;4.63;;;2.50;;
12467;SDS011;57850;52.922;6.256;2023-07-31T00:56:05;2.45;;;2.15;;
12467;SDS011;57850;52.922;6.256;2023-07-31T00:58:32;1.73;;;1.63;;
12467;SDS011;57850;52.922;6.256;2023-07-31T01:00:58;1.80;;;1.60;;
12467;SDS011;57850;52.922;6.256;2023-07-31T01:03:26;3.05;;;1.60;;
12467;SDS011;57850;52.922;6.256;2023-07-31T01:05:55;2.60;;;1.48;;
12467;SDS011;57850;52.922;6.256;2023-07-31T01:08:31;5.57;;;2.08;;
12467;SDS011;57850;52.922;6.256;2023-07-31T01:11:06;2.38;;;1.60;;
12467;SDS011;57850;52.922;6.256;2023-07-31T01:13:38;1.80;;;1.40;;
12467;SDS011;57850;52.922;6.256;2023-07-31T01:16:04;3.47;;;1.90;;
12467;SDS011;57850;52.922;6.256;2023-07-31T01:18:32;1.67;;;1.58;;
12467;SDS011;57850;52.922;6.256;2023-07-31T01:21:01;3.83;;;1.90;;
12467;SDS011;57850;52.922;6.256;2023-07-31T01:23:55;1.98;;;1.77;;
12467;SDS011;57850;52.922;6.256;2023-07-31T01:26:36;2.70;;;2.05;;
12467;SDS011;57850;52.922;6.256;2023-07-31T01:29:07;4.13;;;1.98;;
12467;SDS011;57850;52.922;6.256;2023-07-31T01:31:38;1.73;;;1.60;;
12467;SDS011;57850;52.922;6.256;2023-07-31T01:34:07;2.03;;;1.65;;
12467;SDS011;57850;52.922;6.256;2023-07-31T01:36:36;1.83;;;1.30;;
12467;SDS011;57850;52.922;6.256;2023-07-31T01:39:02;1.50;;;1.40;;
12467;SDS011;57850;52.922;6.256;2023-07-31T01:41:29;1.60;;;1.50;;
12467;SDS011;57850;52.922;6.256;2023-07-31T01:43:57;1.55;;;1.00;;
12467;SDS011;57850;52.922;6.256;2023-07-31T01:46:24;1.30;;;1.20;;
12467;SDS011;57850;52.922;6.256;2023-07-31T01:48:50;2.35;;;1.00;;
12467;SDS011;57850;52.922;6.256;2023-07-31T01:51:17;1.20;;;1.10;;
12467;SDS011;57850;52.922;6.256;2023-07-31T01:53:43;1.00;;;0.90;;
12467;SDS011;57850;52.922;6.256;2023-07-31T01:56:11;1.52;;;1.20;;
12467;SDS011;57850;52.922;6.256;2023-07-31T01:58:38;2.63;;;1.17;;
12467;SDS011;57850;52.922;6.256;2023-07-31T02:01:05;3.08;;;1.23;;
12467;SDS011;57850;52.922;6.256;2023-07-31T02:03:32;1.20;;;1.08;;
12467;SDS011;57850;52.922;6.256;2023-07-31T02:05:59;1.60;;;1.27;;
12467;SDS011;57850;52.922;6.256;2023-07-31T02:08:25;3.25;;;1.35;;
12467;SDS011;57850;52.922;6.256;2023-07-31T02:10:52;1.15;;;1.05;;
12467;SDS011;57850;52.922;6.256;2023-07-31T02:13:18;1.10;;;1.00;;
12467;SDS011;57850;52.922;6.256;2023-07-31T02:15:45;1.20;;;1.10;;
12467;SDS011;57850;52.922;6.256;2023-07-31T02:18:13;0.90;;;0.90;;
12467;SDS011;57850;52.922;6.256;2023-07-31T02:20:40;1.50;;;1.30;;
12467;SDS011;57850;52.922;6.256;2023-07-31T02:23:06;1.77;;;1.20;;
12467;SDS011;57850;52.922;6.256;2023-07-31T02:25:33;1.33;;;1.23;;
12467;SDS011;57850;52.922;6.256;2023-07-31T02:28:00;2.22;;;1.40;;
12467;SDS011;57850;52.922;6.256;2023-07-31T02:30:26;2.58;;;1.25;;
12467;SDS011;57850;52.922;6.256;2023-07-31T02:32:53;1.50;;;1.35;;
12467;SDS011;57850;52.922;6.256;2023-07-31T02:35:21;1.55;;;1.45;;
12467;SDS011;57850;52.922;6.256;2023-07-31T02:37:47;3.92;;;1.60;;
12467;SDS011;57850;52.922;6.256;2023-07-31T02:40:15;1.48;;;1.27;;
12467;SDS011;57850;52.922;6.256;2023-07-31T02:42:42;1.30;;;1.20;;
12467;SDS011;57850;52.922;6.256;2023-07-31T02:45:08;3.38;;;1.67;;
12467;SDS011;57850;52.922;6.256;2023-07-31T02:47:35;1.50;;;1.40;;
12467;SDS011;57850;52.922;6.256;2023-07-31T02:50:02;1.73;;;1.48;;
12467;SDS011;57850;52.922;6.256;2023-07-31T02:52:30;3.55;;;1.70;;
12467;SDS011;57850;52.922;6.256;2023-07-31T02:54:57;1.92;;;1.65;;
12467;SDS011;57850;52.922;6.256;2023-07-31T02:57:24;2.88;;;1.90;;
12467;SDS011;57850;52.922;6.256;2023-07-31T02:59:50;2.40;;;1.60;;
12467;SDS011;57850;52.922;6.256;2023-07-31T03:02:17;1.92;;;1.60;;
12467;SDS011;57850;52.922;6.256;2023-07-31T03:04:43;1.70;;;1.52;;
12467;SDS011;57850;52.922;6.256;2023-07-31T03:07:10;1.70;;;1.40;;
12467;SDS011;57850;52.922;6.256;2023-07-31T03:09:38;1.75;;;1.52;;
12467;SDS011;57850;52.922;6.256;2023-07-31T03:12:06;1.70;;;1.60;;
12467;SDS011;57850;52.922;6.256;2023-07-31T03:14:33;1.63;;;1.48;;
12467;SDS011;57850;52.922;6.256;2023-07-31T03:16:59;1.48;;;1.38;;
12467;SDS011;57850;52.922;6.256;2023-07-31T03:19:26;1.30;;;1.20;;
12467;SDS011;57850;52.922;6.256;2023-07-31T03:21:53;1.67;;;1.42;;
12467;SDS011;57850;52.922;6.256;2023-07-31T03:24:19;3.35;;;1.67;;
12467;SDS011;57850;52.922;6.256;2023-07-31T03:26:47;1.67;;;1.48;;
12467;SDS011;57850;52.922;6.256;2023-07-31T03:29:13;1.50;;;1.40;;
12467;SDS011;57850;52.922;6.256;2023-07-31T03:31:41;2.65;;;1.30;;
12467;SDS011;57850;52.922;6.256;2023-07-31T03:34:07;1.17;;;1.05;;
12467;SDS011;57850;52.922;6.256;2023-07-31T03:36:34;1.98;;;1.50;;
12467;SDS011;57850;52.922;6.256;2023-07-31T03:39:00;1.50;;;1.40;;
12467;SDS011;57850;52.922;6.256;2023-07-31T03:41:27;1.52;;;1.42;;
12467;SDS011;57850;52.922;6.256;2023-07-31T03:43:55;1.40;;;1.30;;
12467;SDS011;57850;52.922;6.256;2023-07-31T03:46:22;1.67;;;1.58;;
12467;SDS011;57850;52.922;6.256;2023-07-31T03:48:48;1.00;;;1.00;;
12467;SDS011;57850;52.922;6.256;2023-07-31T03:51:15;3.47;;;1.50;;
12467;SDS011;57850;52.922;6.256;2023-07-31T03:53:42;2.85;;;1.65;;
12467;SDS011;57850;52.922;6.256;2023-07-31T03:56:08;1.48;;;1.38;;
12467;SDS011;57850;52.922;6.256;2023-07-31T03:58:35;2.17;;;1.40;;
12467;SDS011;57850;52.922;6.256;2023-07-31T04:01:03;3.25;;;1.30;;
12467;SDS011;57850;52.922;6.256;2023-07-31T04:03:30;1.50;;;1.40;;
12467;SDS011;57850;52.922;6.256;2023-07-31T04:05:56;1.60;;;1.38;;
12467;SDS011;57850;52.922;6.256;2023-07-31T04:08:23;3.28;;;1.30;;
12467;SDS011;57850;52.922;6.256;2023-07-31T04:10:50;2.45;;;1.83;;
12467;SDS011;57850;52.922;6.256;2023-07-31T04:13:17;1.83;;;1.67;;
12467;SDS011;57850;52.922;6.256;2023-07-31T04:15:47;2.28;;;1.40;;
12467;SDS011;57850;52.922;6.256;2023-07-31T04:18:16;2.28;;;1.55;;
12467;SDS011;57850;52.922;6.256;2023-07-31T04:20:43;3.17;;;2.00;;
12467;SDS011;57850;52.922;6.256;2023-07-31T04:23:10;4.03;;;2.22;;
12467;SDS011;57850;52.922;6.256;2023-07-31T04:25:36;6.32;;;3.30;;
12467;SDS011;57850;52.922;6.256;2023-07-31T04:28:03;10.13;;;3.53;;
12467;SDS011;57850;52.922;6.256;2023-07-31T04:30:30;8.98;;;3.30;;
12467;SDS011;57850;52.922;6.256;2023-07-31T04:32:57;11.90;;;5.22;;
12467;SDS011;57850;52.922;6.256;2023-07-31T04:35:25;15.27;;;4.90;;
12467;SDS011;57850;52.922;6.256;2023-07-31T04:37:51;14.00;;;4.85;;
12467;SDS011;57850;52.922;6.256;2023-07-31T04:40:18;20.27;;;7.20;;
12467;SDS011;57850;52.922;6.256;2023-07-31T04:42:45;15.80;;;6.53;;
12467;SDS011;57850;52.922;6.256;2023-07-31T04:45:11;18.48;;;7.30;;
12467;SDS011;57850;52.922;6.256;2023-07-31T04:47:38;21.48;;;7.32;;
12467;SDS011;57850;52.922;6.256;2023-07-31T04:50:05;18.25;;;7.78;;
12467;SDS011;57850;52.922;6.256;2023-07-31T04:52:34;24.67;;;8.35;;
12467;SDS011;57850;52.922;6.256;2023-07-31T04:55:00;26.23;;;7.90;;
12467;SDS011;57850;52.922;6.256;2023-07-31T04:57:27;27.00;;;8.20;;
12467;SDS011;57850;52.922;6.256;2023-07-31T04:59:53;23.85;;;7.47;;
12467;SDS011;57850;52.922;6.256;2023-07-31T05:02:20;19.25;;;7.68;;
12467;SDS011;57850;52.922;6.256;2023-07-31T05:04:47;22.98;;;8.70;;
12467;SDS011;57850;52.922;6.256;2023-07-31T05:07:13;21.20;;;8.38;;
12467;SDS011;57850;52.922;6.256;2023-07-31T05:09:43;23.10;;;8.10;;
12467;SDS011;57850;52.922;6.256;2023-07-31T05:12:10;26.70;;;8.15;;
12467;SDS011;57850;52.922;6.256;2023-07-31T05:14:37;20.85;;;7.70;;
12467;SDS011;57850;52.922;6.256;2023-07-31T05:17:03;28.63;;;9.23;;
12467;SDS011;57850;52.922;6.256;2023-07-31T05:19:30;20.90;;;8.30;;
12467;SDS011;57850;52.922;6.256;2023-07-31T05:21:57;22.02;;;8.05;;
12467;SDS011;57850;52.922;6.256;2023-07-31T05:24:23;29.23;;;9.15;;
12467;SDS011;57850;52.922;6.256;2023-07-31T05:26:51;33.85;;;9.68;;
12467;SDS011;57850;52.922;6.256;2023-07-31T05:29:18;24.83;;;7.80;;
12467;SDS011;57850;52.922;6.256;2023-07-31T05:31:45;21.02;;;8.05;;
12467;SDS011;57850;52.922;6.256;2023-07-31T05:34:11;20.20;;;8.90;;
12467;SDS011;57850;52.922;6.256;2023-07-31T05:36:38;36.70;;;8.93;;
12467;SDS011;57850;52.922;6.256;2023-07-31T05:39:04;29.73;;;8.90;;
12467;SDS011;57850;52.922;6.256;2023-07-31T05:41:33;29.77;;;8.80;;
12467;SDS011;57850;52.922;6.256;2023-07-31T05:44:01;31.25;;;9.32;;
12467;SDS011;57850;52.922;6.256;2023-07-31T05:46:28;28.48;;;9.35;;
12467;SDS011;57850;52.922;6.256;2023-07-31T05:48:56;24.20;;;8.13;;
12467;SDS011;57850;52.922;6.256;2023-07-31T05:51:22;19.25;;;8.13;;
12467;SDS011;57850;52.922;6.256;2023-07-31T05:53:49;33.53;;;9.63;;
12467;SDS011;57850;52.922;6.256;2023-07-31T05:56:15;27.83;;;9.07;;
12467;SDS011;57850;52.922;6.256;2023-07-31T05:58:42;25.08;;;8.05;;
12467;SDS011;57850;52.922;6.256;2023-07-31T06:01:10;21.60;;;8.27;;
12467;SDS011;57850;52.922;6.256;2023-07-31T06:03:36;22.38;;;8.00;;
12467;SDS011;57850;52.922;6.256;2023-07-31T06:06:03;18.67;;;7.13;;
12467;SDS011;57850;52.922;6.256;2023-07-31T06:08:30;25.77;;;7.90;;
12467;SDS011;57850;52.922;6.256;2023-07-31T06:10:57;20.58;;;7.70;;
12467;SDS011;57850;52.922;6.256;2023-07-31T06:13:24;21.95;;;8.35;;
12467;SDS011;57850;52.922;6.256;2023-07-31T06:15:50;16.20;;;6.47;;
12467;SDS011;57850;52.922;6.256;2023-07-31T06:18:18;25.65;;;8.55;;
12467;SDS011;57850;52.922;6.256;2023-07-31T06:20:45;25.88;;;8.07;;
12467;SDS011;57850;52.922;6.256;2023-07-31T06:23:12;21.10;;;7.55;;
12467;SDS011;57850;52.922;6.256;2023-07-31T06:25:39;26.95;;;7.80;;
12467;SDS011;57850;52.922;6.256;2023-07-31T06:28:05;24.33;;;7.95;;
12467;SDS011;57850;52.922;6.256;2023-07-31T06:30:32;22.50;;;7.90;;
12467;SDS011;57850;52.922;6.256;2023-07-31T06:32:59;22.50;;;7.70;;
12467;SDS011;57850;52.922;6.256;2023-07-31T06:35:26;31.58;;;8.70;;
12467;SDS011;57850;52.922;6.256;2023-07-31T06:37:53;28.65;;;7.72;;
12467;SDS011;57850;52.922;6.256;2023-07-31T06:40:20;25.15;;;9.73;;
12467;SDS011;57850;52.922;6.256;2023-07-31T06:42:46;23.70;;;8.48;;
12467;SDS011;57850;52.922;6.256;2023-07-31T06:45:13;26.92;;;8.45;;
12467;SDS011;57850;52.922;6.256;2023-07-31T06:47:40;18.58;;;8.05;;
12467;SDS011;57850;52.922;6.256;2023-07-31T06:50:07;18.77;;;7.30;;
12467;SDS011;57850;52.922;6.256;2023-07-31T06:52:35;21.67;;;7.38;;
12467;SDS011;57850;52.922;6.256;2023-07-31T06:55:02;14.98;;;5.75;;
12467;SDS011;57850;52.922;6.256;2023-07-31T06:57:30;18.15;;;6.63;;
12467;SDS011;57850;52.922;6.256;2023-07-31T06:59:56;13.45;;;5.90;;
12467;SDS011;57850;52.922;6.256;2023-07-31T07:02:23;8.88;;;4.55;;
12467;SDS011;57850;52.922;6.256;2023-07-31T07:04:49;9.43;;;5.00;;
12467;SDS011;57850;52.922;6.256;2023-07-31T07:07:16;12.73;;;5.10;;
12467;SDS011;57850;52.922;6.256;2023-07-31T07:09:45;13.88;;;4.45;;
12467;SDS011;57850;52.922;6.256;2023-07-31T07:12:11;10.60;;;4.28;;
12467;SDS011;57850;52.922;6.256;2023-07-31T07:14:38;7.70;;;3.83;;
12467;SDS011;57850;52.922;6.256;2023-07-31T07:17:05;7.22;;;4.03;;
12467;SDS011;57850;52.922;6.256;2023-07-31T07:19:32;9.50;;;4.55;;
12467;SDS011;57850;52.922;6.256;2023-07-31T07:21:58;8.23;;;3.78;;
12467;SDS011;57850;52.922;6.256;2023-07-31T07:24:27;7.18;;;3.95;;
12467;SDS011;57850;52.922;6.256;2023-07-31T07:26:55;7.78;;;3.35;;
12467;SDS011;57850;52.922;6.256;2023-07-31T07:29:21;4.68;;;3.30;;
12467;SDS011;57850;52.922;6.256;2023-07-31T07:31:48;6.60;;;3.65;;
12467;SDS011;57850;52.922;6.256;2023-07-31T07:34:15;7.38;;;3.92;;
12467;SDS011;57850;52.922;6.256;2023-07-31T07:36:41;5.53;;;3.55;;
12467;SDS011;57850;52.922;6.256;2023-07-31T07:39:08;5.93;;;3.13;;
12467;SDS011;57850;52.922;6.256;2023-07-31T07:41:36;7.03;;;3.58;;
12467;SDS011;57850;52.922;6.256;2023-07-31T07:44:04;7.05;;;3.22;;
12467;SDS011;57850;52.922;6.256;2023-07-31T07:46:30;4.45;;;3.28;;
12467;SDS011;57850;52.922;6.256;2023-07-31T07:48:57;4.90;;;3.03;;
12467;SDS011;57850;52.922;6.256;2023-07-31T07:51:23;4.65;;;2.72;;
12467;SDS011;57850;52.922;6.256;2023-07-31T07:53:50;7.65;;;3.10;;
12467;SDS011;57850;52.922;6.256;2023-07-31T07:56:17;4.53;;;2.33;;
12467;SDS011;57850;52.922;6.256;2023-07-31T07:58:43;3.25;;;2.42;;
12467;SDS011;57850;52.922;6.256;2023-07-31T08:01:11;4.72;;;2.20;;
12467;SDS011;57850;52.922;6.256;2023-07-31T08:03:38;3.30;;;2.30;;
12467;SDS011;57850;52.922;6.256;2023-07-31T08:06:05;4.35;;;2.42;;
12467;SDS011;57850;52.922;6.256;2023-07-31T08:08:33;3.15;;;2.47;;
12467;SDS011;57850;52.922;6.256;2023-07-31T08:10:59;4.65;;;2.65;;
12467;SDS011;57850;52.922;6.256;2023-07-31T08:13:26;4.53;;;2.60;;
12467;SDS011;57850;52.922;6.256;2023-07-31T08:15:52;6.70;;;2.72;;
12467;SDS011;57850;52.922;6.256;2023-07-31T08:18:21;3.83;;;2.35;;
12467;SDS011;57850;52.922;6.256;2023-07-31T08:20:47;3.88;;;2.70;;
12467;SDS011;57850;52.922;6.256;2023-07-31T08:23:15;4.18;;;2.45;;
12467;SDS011;57850;52.922;6.256;2023-07-31T08:25:42;2.70;;;2.10;;
12467;SDS011;57850;52.922;6.256;2023-07-31T08:28:09;3.45;;;2.25;;
12467;SDS011;57850;52.922;6.256;2023-07-31T08:30:35;3.78;;;2.00;;
12467;SDS011;57850;52.922;6.256;2023-07-31T08:33:02;3.13;;;2.45;;
12467;SDS011;57850;52.922;6.256;2023-07-31T08:35:30;3.50;;;2.47;;
12467;SDS011;57850;52.922;6.256;2023-07-31T08:37:57;3.30;;;2.33;;
12467;SDS011;57850;52.922;6.256;2023-07-31T08:40:23;4.53;;;2.63;;
12467;SDS011;57850;52.922;6.256;2023-07-31T08:42:52;3.55;;;2.10;;
12467;SDS011;57850;52.922;6.256;2023-07-31T08:45:21;2.40;;;2.20;;
12467;SDS011;57850;52.922;6.256;2023-07-31T08:47:49;2.70;;;2.30;;
12467;SDS011;57850;52.922;6.256;2023-07-31T08:50:17;2.13;;;1.92;;
12467;SDS011;57850;52.922;6.256;2023-07-31T08:52:47;2.95;;;2.17;;
12467;SDS011;57850;52.922;6.256;2023-07-31T08:55:14;2.47;;;2.03;;
12467;SDS011;57850;52.922;6.256;2023-07-31T08:57:42;2.85;;;1.98;;
12467;SDS011;57850;52.922;6.256;2023-07-31T09:00:09;1.90;;;1.80;;
12467;SDS011;57850;52.922;6.256;2023-07-31T09:02:38;2.08;;;1.90;;
12467;SDS011;57850;52.922;6.256;2023-07-31T09:05:07;2.05;;;1.85;;
12467;SDS011;57850;52.922;6.256;2023-07-31T09:07:35;2.30;;;1.83;;
12467;SDS011;57850;52.922;6.256;2023-07-31T09:10:03;1.60;;;1.50;;
12467;SDS011;57850;52.922;6.256;2023-07-31T09:12:31;1.40;;;1.27;;
12467;SDS011;57850;52.922;6.256;2023-07-31T09:14:58;1.95;;;1.40;;
12467;SDS011;57850;52.922;6.256;2023-07-31T09:17:30;1.67;;;1.50;;
12467;SDS011;57850;52.922;6.256;2023-07-31T09:19:58;1.58;;;1.27;;
12467;SDS011;57850;52.922;6.256;2023-07-31T09:22:40;2.45;;;1.40;;
12467;SDS011;57850;52.922;6.256;2023-07-31T09:25:16;3.10;;;1.40;;
12467;SDS011;57850;52.922;6.256;2023-07-31T09:27:48;1.50;;;1.40;;
12467;SDS011;57850;52.922;6.256;2023-07-31T09:30:15;2.78;;;1.45;;
12467;SDS011;57850;52.922;6.256;2023-07-31T09:32:43;1.75;;;1.40;;
12467;SDS011;57850;52.922;6.256;2023-07-31T09:35:13;2.70;;;1.20;;
12467;SDS011;57850;52.922;6.256;2023-07-31T09:37:48;1.25;;;1.15;;
12467;SDS011;57850;52.922;6.256;2023-07-31T09:40:25;1.50;;;1.40;;
12467;SDS011;57850;52.922;6.256;2023-07-31T09:42:54;1.58;;;1.45;;
12467;SDS011;57850;52.922;6.256;2023-07-31T09:45:22;1.35;;;1.20;;
12467;SDS011;57850;52.922;6.256;2023-07-31T09:47:49;2.38;;;1.30;;
12467;SDS011;57850;52.922;6.256;2023-07-31T09:50:16;1.90;;;1.35;;
12467;SDS011;57850;52.922;6.256;2023-07-31T09:52:43;1.50;;;1.40;;
12467;SDS011;57850;52.922;6.256;2023-07-31T09:55:11;1.52;;;1.42;;
12467;SDS011;57850;52.922;6.256;2023-07-31T09:57:41;1.25;;;1.20;;
12467;SDS011;57850;52.922;6.256;2023-07-31T10:00:09;1.30;;;1.20;;
12467;SDS011;57850;52.922;6.256;2023-07-31T10:02:37;1.42;;;1.30;;
12467;SDS011;57850;52.922;6.256;2023-07-31T10:05:05;0.90;;;0.90;;
12467;SDS011;57850;52.922;6.256;2023-07-31T10:07:34;1.10;;;1.00;;
12467;SDS011;57850;52.922;6.256;2023-07-31T10:10:05;0.90;;;0.90;;
12467;SDS011;57850;52.922;6.256;2023-07-31T10:12:33;0.90;;;0.90;;
12467;SDS011;57850;52.922;6.256;2023-07-31T10:15:02;0.90;;;0.90;;
12467;SDS011;57850;52.922;6.256;2023-07-31T10:17:30;1.27;;;1.02;;
12467;SDS011;57850;52.922;6.256;2023-07-31T10:19:58;1.30;;;1.00;;
12467;SDS011;57850;52.922;6.256;2023-07-31T10:22:26;1.30;;;1.20;;
12467;SDS011;57850;52.922;6.256;2023-07-31T10:24:54;1.20;;;1.10;;
12467;SDS011;57850;52.922;6.256;2023-07-31T10:27:23;1.23;;;1.15;;
12467;SDS011;57850;52.922;6.256;2023-07-31T10:29:50;1.15;;;1.05;;
12467;SDS011;57850;52.922;6.256;2023-07-31T10:32:20;1.85;;;1.23;;
12467;SDS011;57850;52.922;6.256;2023-07-31T10:34:48;1.95;;;1.50;;
12467;SDS011;57850;52.922;6.256;2023-07-31T10:37:19;1.13;;;1.02;;
12467;SDS011;57850;52.922;6.256;2023-07-31T10:39:54;2.72;;;1.75;;
12467;SDS011;57850;52.922;6.256;2023-07-31T10:42:29;3.15;;;1.90;;
12467;SDS011;57850;52.922;6.256;2023-07-31T10:45:01;3.25;;;2.15;;
12467;SDS011;57850;52.922;6.256;2023-07-31T10:47:30;1.80;;;1.70;;
12467;SDS011;57850;52.922;6.256;2023-07-31T10:52:44;4.25;;;1.80;;
12467;SDS011;57850;52.922;6.256;2023-07-31T10:55:14;3.72;;;1.90;;
12467;SDS011;57850;52.922;6.256;2023-07-31T10:57:44;1.63;;;1.40;;
12467;SDS011;57850;52.922;6.256;2023-07-31T11:00:18;5.80;;;1.80;;
12467;SDS011;57850;52.922;6.256;2023-07-31T11:02:57;2.45;;;1.60;;
12467;SDS011;57850;52.922;6.256;2023-07-31T11:05:41;1.90;;;1.60;;
12467;SDS011;57850;52.922;6.256;2023-07-31T11:08:12;4.28;;;1.83;;
12467;SDS011;57850;52.922;6.256;2023-07-31T11:10:40;2.78;;;1.63;;
12467;SDS011;57850;52.922;6.256;2023-07-31T11:13:07;1.42;;;1.30;;
12467;SDS011;57850;52.922;6.256;2023-07-31T11:15:34;2.88;;;1.25;;
12467;SDS011;57850;52.922;6.256;2023-07-31T11:18:02;2.90;;;1.30;;
12467;SDS011;57850;52.922;6.256;2023-07-31T11:20:30;1.35;;;1.25;;
12467;SDS011;57850;52.922;6.256;2023-07-31T11:22:58;1.40;;;1.20;;
12467;SDS011;57850;52.922;6.256;2023-07-31T11:25:26;1.77;;;1.23;;
12467;SDS011;57850;52.922;6.256;2023-07-31T11:27:55;1.40;;;1.30;;
12467;SDS011;57850;52.922;6.256;2023-07-31T11:30:22;1.35;;;1.25;;
12467;SDS011;57850;52.922;6.256;2023-07-31T11:32:48;1.50;;;1.40;;
12467;SDS011;57850;52.922;6.256;2023-07-31T11:35:17;1.58;;;1.42;;
12467;SDS011;57850;52.922;6.256;2023-07-31T11:37:44;4.22;;;1.25;;
12467;SDS011;57850;52.922;6.256;2023-07-31T11:40:11;1.83;;;1.40;;
12467;SDS011;57850;52.922;6.256;2023-07-31T11:42:38;8.18;;;1.70;;
12467;SDS011;57850;52.922;6.256;2023-07-31T11:45:05;1.52;;;1.38;;
12467;SDS011;57850;52.922;6.256;2023-07-31T11:47:33;1.65;;;1.10;;
12467;SDS011;57850;52.922;6.256;2023-07-31T11:50:00;2.95;;;1.52;;
12467;SDS011;57850;52.922;6.256;2023-07-31T11:52:28;2.13;;;1.45;;
12467;SDS011;57850;52.922;6.256;2023-07-31T11:54:56;1.58;;;1.38;;
12467;SDS011;57850;52.922;6.256;2023-07-31T11:57:24;2.03;;;1.67;;
12467;SDS011;57850;52.922;6.256;2023-07-31T11:59:51;2.25;;;1.50;;
12467;SDS011;57850;52.922;6.256;2023-07-31T12:02:18;2.90;;;2.30;;
12467;SDS011;57850;52.922;6.256;2023-07-31T12:04:46;3.97;;;2.40;;
12467;SDS011;57850;52.922;6.256;2023-07-31T12:07:13;3.85;;;2.00;;
12467;SDS011;57850;52.922;6.256;2023-07-31T12:09:51;5.93;;;2.70;;
12467;SDS011;57850;52.922;6.256;2023-07-31T12:12:22;5.22;;;2.50;;
12467;SDS011;57850;52.922;6.256;2023-07-31T12:14:50;2.50;;;2.30;;
12467;SDS011;57850;52.922;6.256;2023-07-31T12:17:17;2.63;;;2.28;;
12467;SDS011;57850;52.922;6.256;2023-07-31T12:19:45;4.45;;;2.03;;
12467;SDS011;57850;52.922;6.256;2023-07-31T12:22:12;3.83;;;2.08;;
12467;SDS011;57850;52.922;6.256;2023-07-31T12:24:40;2.50;;;2.10;;
12467;SDS011;57850;52.922;6.256;2023-07-31T12:27:11;2.38;;;2.10;;
12467;SDS011;57850;52.922;6.256;2023-07-31T12:29:39;2.22;;;1.95;;
12467;SDS011;57850;52.922;6.256;2023-07-31T12:32:20;2.78;;;1.65;;
12467;SDS011;57850;52.922;6.256;2023-07-31T12:34:48;6.15;;;2.75;;
12467;SDS011;57850;52.922;6.256;2023-07-31T12:37:14;4.07;;;2.85;;
12467;SDS011;57850;52.922;6.256;2023-07-31T12:39:41;2.20;;;2.03;;
12467;SDS011;57850;52.922;6.256;2023-07-31T12:42:08;5.25;;;2.70;;
12467;SDS011;57850;52.922;6.256;2023-07-31T12:44:36;4.18;;;2.78;;
12467;SDS011;57850;52.922;6.256;2023-07-31T12:47:02;3.72;;;2.85;;
12467;SDS011;57850;52.922;6.256;2023-07-31T12:49:30;8.63;;;3.67;;
12467;SDS011;57850;52.922;6.256;2023-07-31T12:51:56;4.82;;;3.35;;
12467;SDS011;57850;52.922;6.256;2023-07-31T12:54:23;4.20;;;2.60;;
12467;SDS011;57850;52.922;6.256;2023-07-31T12:56:49;5.90;;;3.03;;
12467;SDS011;57850;52.922;6.256;2023-07-31T12:59:16;5.38;;;2.95;;
12467;SDS011;57850;52.922;6.256;2023-07-31T13:01:44;6.72;;;3.25;;
12467;SDS011;57850;52.922;6.256;2023-07-31T13:04:11;10.05;;;3.60;;
12467;SDS011;57850;52.922;6.256;2023-07-31T13:06:37;6.00;;;3.05;;
12467;SDS011;57850;52.922;6.256;2023-07-31T13:09:04;4.32;;;2.38;;
12467;SDS011;57850;52.922;6.256;2023-07-31T13:11:30;7.35;;;3.13;;
12467;SDS011;57850;52.922;6.256;2023-07-31T13:13:57;7.63;;;3.10;;
12467;SDS011;57850;52.922;6.256;2023-07-31T13:16:23;6.85;;;3.90;;
12467;SDS011;57850;52.922;6.256;2023-07-31T13:18:51;5.05;;;2.60;;
12467;SDS011;57850;52.922;6.256;2023-07-31T13:21:18;10.65;;;3.53;;
12467;SDS011;57850;52.922;6.256;2023-07-31T13:23:46;5.35;;;3.80;;
12467;SDS011;57850;52.922;6.256;2023-07-31T13:26:13;8.23;;;4.10;;
12467;SDS011;57850;52.922;6.256;2023-07-31T13:28:40;9.45;;;3.90;;
12467;SDS011;57850;52.922;6.256;2023-07-31T13:31:06;6.05;;;3.53;;
12467;SDS011;57850;52.922;6.256;2023-07-31T13:33:33;9.93;;;3.72;;
12467;SDS011;57850;52.922;6.256;2023-07-31T13:36:01;5.85;;;3.40;;
12467;SDS011;57850;52.922;6.256;2023-07-31T13:38:27;6.18;;;3.22;;
12467;SDS011;57850;52.922;6.256;2023-07-31T13:40:54;11.82;;;3.65;;
12467;SDS011;57850;52.922;6.256;2023-07-31T13:43:21;7.97;;;3.20;;
12467;SDS011;57850;52.922;6.256;2023-07-31T13:45:48;7.28;;;3.08;;
12467;SDS011;57850;52.922;6.256;2023-07-31T13:48:15;9.98;;;3.10;;
12467;SDS011;57850;52.922;6.256;2023-07-31T13:50:41;8.30;;;3.60;;
12467;SDS011;57850;52.922;6.256;2023-07-31T13:53:09;8.73;;;3.42;;
12467;SDS011;57850;52.922;6.256;2023-07-31T13:55:36;11.23;;;3.50;;
12467;SDS011;57850;52.922;6.256;2023-07-31T13:58:03;8.75;;;3.78;;
12467;SDS011;57850;52.922;6.256;2023-07-31T14:00:29;8.82;;;3.60;;
12467;SDS011;57850;52.922;6.256;2023-07-31T14:02:56;10.07;;;3.40;;
12467;SDS011;57850;52.922;6.256;2023-07-31T14:05:23;7.60;;;3.13;;
12467;SDS011;57850;52.922;6.256;2023-07-31T14:07:49;9.23;;;3.83;;
12467;SDS011;57850;52.922;6.256;2023-07-31T14:10:17;8.48;;;4.05;;
12467;SDS011;57850;52.922;6.256;2023-07-31T14:12:44;8.90;;;3.60;;
12467;SDS011;57850;52.922;6.256;2023-07-31T14:15:11;8.35;;;3.47;;
12467;SDS011;57850;52.922;6.256;2023-07-31T14:17:38;7.03;;;3.28;;
12467;SDS011;57850;52.922;6.256;2023-07-31T14:20:05;6.30;;;3.53;;
12467;SDS011;57850;52.922;6.256;2023-07-31T14:22:33;13.15;;;3.90;;
12467;SDS011;57850;52.922;6.256;2023-07-31T14:25:00;10.50;;;3.75;;
12467;SDS011;57850;52.922;6.256;2023-07-31T14:27:28;11.30;;;3.33;;
12467;SDS011;57850;52.922;6.256;2023-07-31T14:29:54;6.65;;;3.58;;
12467;SDS011;57850;52.922;6.256;2023-07-31T14:32:21;6.93;;;3.20;;
12467;SDS011;57850;52.922;6.256;2023-07-31T14:34:48;5.03;;;2.97;;
12467;SDS011;57850;52.922;6.256;2023-07-31T14:37:15;9.20;;;3.40;;
12467;SDS011;57850;52.922;6.256;2023-07-31T14:39:42;8.02;;;3.33;;
12467;SDS011;57850;52.922;6.256;2023-07-31T14:42:08;6.32;;;3.30;;
12467;SDS011;57850;52.922;6.256;2023-07-31T14:44:36;7.85;;;3.03;;
12467;SDS011;57850;52.922;6.256;2023-07-31T14:47:03;5.90;;;2.80;;
12467;SDS011;57850;52.922;6.256;2023-07-31T14:49:30;8.48;;;3.05;;
12467;SDS011;57850;52.922;6.256;2023-07-31T14:51:57;7.18;;;3.10;;